.
WxDataArchive / Data Records for 2014-12-25
2014-12-24 December 2014 2014-12-26

Data Records for Thursday, 25 December 2014

Time	Temp	Chill	HIndex	Humid	Dewpt	 Wind 	HiWind	WindDir	Rain 	Barom
-----	----	-----	------	-----	-----	------	------	-------	-----	-----
00:00	36.6	36.6	36.6	89	33.7	2	6	270	0.00	29.598 
00:05	36.6	36.6	36.6	89	33.7	1	4	270	0.00	29.598 
00:10	36.5	36.5	36.5	89	33.6	2	6	248	0.00	29.598 
00:15	36.5	36.5	36.5	90	33.9	2	6	270	0.00	29.600 
00:20	36.5	36.5	36.5	90	33.9	2	6	248	0.00	29.600 
00:25	36.3	36.3	36.3	90	33.7	2	5	248	0.00	29.600 
00:30	36.3	36.3	36.3	90	33.7	1	5	248	0.00	29.604 
00:35	36.2	36.2	36.2	89	33.3	2	6	248	0.00	29.604 
00:40	36.2	36.2	36.2	89	33.3	1	4	248	0.00	29.604 
00:45	36.2	36.2	36.2	89	33.3	2	4	225	0.00	29.613 
00:50	36.2	36.2	36.2	88	33.0	2	9	248	0.00	29.613 
00:55	36.2	36.2	36.2	88	33.0	2	6	248	0.00	29.613 
01:00	36.2	36.2	36.2	88	33.0	2	5	248	0.00	29.614 
01:05	36.2	36.2	36.2	88	33.0	2	5	248	0.00	29.614 
01:10	36.2	36.2	36.2	88	33.0	1	5	248	0.00	29.614 
01:15	36.2	36.2	36.2	88	33.0	3	6	248	0.00	29.618 
01:20	36.0	36.0	36.0	88	32.8	2	6	248	0.00	29.618 
01:25	36.0	36.0	36.0	88	32.8	1	5	248	0.00	29.618 
01:30	36.0	36.0	36.0	89	33.1	2	5	248	0.00	29.631 
01:35	35.9	35.9	35.9	89	33.0	2	5	248	0.00	29.631 
01:40	35.9	35.9	35.9	89	33.0	2	6	248	0.00	29.631 
01:45	36.0	36.0	36.0	89	33.1	1	5	248	0.00	29.635 
01:50	36.0	36.0	36.0	89	33.1	2	6	248	0.00	29.635 
01:55	36.0	36.0	36.0	89	33.1	2	5	270	0.00	29.635 
02:00	36.0	36.0	36.0	89	33.1	2	7	248	0.00	29.647 
02:05	36.0	36.0	36.0	89	33.1	2	7	270	0.00	29.647 
02:10	36.0	36.0	36.0	89	33.1	2	5	270	0.00	29.647 
02:15	36.0	36.0	36.0	89	33.1	1	4	270	0.00	29.663 
02:20	36.0	36.0	36.0	89	33.1	2	5	248	0.00	29.663 
02:25	35.9	35.9	35.9	89	33.0	2	4	248	0.00	29.663 
02:30	35.9	35.9	35.9	89	33.0	2	5	248	0.00	29.669 
02:35	35.9	35.9	35.9	90	33.3	1	4	270	0.00	29.669 
02:40	35.9	35.9	35.9	90	33.3	1	4	270	0.00	29.669 
02:45	35.9	35.9	35.9	90	33.3	2	4	248	0.00	29.681 
02:50	35.8	35.8	35.8	90	33.2	1	4	248	0.00	29.681 
02:55	35.8	35.8	35.8	90	33.2	1	4	248	0.00	29.681 
03:00	35.8	35.8	35.8	91	33.4	1	4	248	0.00	29.693 
03:05	35.8	35.8	35.8	91	33.4	2	4	248	0.00	29.693 
03:10	35.8	35.8	35.8	91	33.4	2	4	248	0.00	29.693 
03:15	35.8	35.8	35.8	91	33.4	2	4	248	0.00	29.697 
03:20	35.8	35.8	35.8	91	33.4	2	6	248	0.00	29.697 
03:25	35.8	35.8	35.8	91	33.4	1	3	248	0.00	29.697 
03:30	35.6	35.6	35.6	91	33.2	1	4	248	0.00	29.711 
03:35	35.6	35.6	35.6	91	33.2	1	3	248	0.00	29.711 
03:40	35.8	35.8	35.8	92	33.7	1	4	248	0.00	29.711 
03:45	35.8	35.8	35.8	92	33.7	1	5	270	0.00	29.713 
03:50	35.8	35.8	35.8	92	33.7	1	5	248	0.00	29.713 
03:55	35.8	35.8	35.8	91	33.4	2	5	248	0.00	29.713 
04:00	35.9	35.9	35.9	91	33.5	1	4	248	0.00	29.724 
04:05	35.9	35.9	35.9	91	33.5	1	4	248	0.00	29.724 
04:10	35.9	35.9	35.9	91	33.5	1	5	270	0.00	29.724 
04:15	36.0	36.0	36.0	91	33.6	1	6	270	0.00	29.729 
04:20	36.0	36.0	36.0	91	33.6	1	4	270	0.00	29.729 
04:25	36.0	36.0	36.0	91	33.6	1	5	270	0.00	29.729 
04:30	36.0	36.0	36.0	90	33.4	1	3	270	0.00	29.736 
04:35	36.2	36.2	36.2	90	33.6	1	4	248	0.00	29.736 
04:40	36.2	36.2	36.2	90	33.6	1	5	248	0.00	29.736 
04:45	36.2	36.2	36.2	90	33.6	2	4	248	0.00	29.749 
04:50	36.3	36.3	36.3	89	33.4	2	5	270	0.00	29.749 
04:55	36.3	36.3	36.3	89	33.4	2	6	248	0.00	29.749 
05:00	36.3	36.3	36.3	89	33.4	1	4	248	0.00	29.758 
05:05	36.3	36.3	36.3	88	33.1	2	4	248	0.00	29.758 
05:10	36.3	36.3	36.3	88	33.1	2	4	248	0.00	29.758 
05:15	36.5	36.5	36.5	88	33.3	2	5	248	0.00	29.771 
05:20	36.5	36.5	36.5	88	33.3	2	6	248	0.00	29.771 
05:25	36.5	36.5	36.5	88	33.3	2	5	248	0.00	29.771 
05:30	36.5	36.5	36.5	87	33.0	2	4	248	0.00	29.788 
05:35	36.5	36.5	36.5	86	32.7	3	6	270	0.00	29.788 
05:40	36.5	36.5	36.5	86	32.7	2	5	248	0.00	29.788 
05:45	36.5	36.5	36.5	85	32.4	1	5	292	0.00	29.794 
05:50	36.5	36.5	36.5	84	32.1	1	5	248	0.00	29.794 
05:55	36.5	36.5	36.5	84	32.1	1	4	292	0.00	29.794 
06:00	36.5	36.5	36.5	84	32.1	1	5	248	0.00	29.806 
06:05	36.5	36.5	36.5	83	31.8	2	5	270	0.00	29.806 
06:10	36.5	36.5	36.5	83	31.8	1	3	270	0.00	29.806 
06:15	36.5	36.5	36.5	83	31.8	1	4	270	0.00	29.822 
06:20	36.5	36.5	36.5	82	31.5	1	5	248	0.00	29.822 
06:25	36.6	36.6	36.6	82	31.6	1	3	248	0.00	29.822 
06:30	36.5	36.5	36.5	82	31.5	1	4	248	0.00	29.833 
06:35	36.5	36.5	36.5	83	31.8	1	3	270	0.00	29.833 
06:40	36.5	36.5	36.5	83	31.8	1	4	248	0.00	29.833 
06:45	36.5	36.5	36.5	83	31.8	1	5	270	0.00	29.843 
06:50	36.5	36.5	36.5	83	31.8	1	4	270	0.00	29.843 
06:55	36.5	36.5	36.5	83	31.8	1	3	270	0.00	29.843 
07:00	36.6	36.6	36.6	84	32.2	1	4	270	0.00	29.854 
07:05	36.6	36.6	36.6	84	32.2	1	4	248	0.00	29.854 
07:10	36.6	36.6	36.6	84	32.2	1	3	248	0.00	29.854 
07:15	36.6	36.6	36.6	85	32.5	1	2	248	0.00	29.865 
07:20	36.5	36.5	36.5	85	32.4	2	6	248	0.00	29.865 
07:25	36.2	36.2	36.2	86	32.4	2	5	270	0.00	29.865 
07:30	36.0	36.0	36.0	87	32.5	1	4	270	0.00	29.877 
07:35	35.9	35.9	35.9	88	32.7	1	3	270	0.00	29.877 
07:40	35.9	35.9	35.9	88	32.7	1	4	270	0.00	29.877 
07:45	35.8	35.8	35.8	88	32.6	1	4	270	0.00	29.885 
07:50	35.6	35.6	35.6	88	32.4	1	5	248	0.00	29.885 
07:55	35.6	35.6	35.6	88	32.4	1	4	270	0.00	29.885 
08:00	35.6	35.6	35.6	88	32.4	1	4	270	0.00	29.891 
08:05	35.6	35.6	35.6	89	32.7	1	5	270	0.00	29.891 
08:10	35.6	35.6	35.6	88	32.4	1	5	248	0.00	29.891 
08:15	35.6	35.6	35.6	88	32.4	1	4	248	0.00	29.904 
08:20	35.8	35.8	35.8	88	32.6	2	5	248	0.00	29.904 
08:25	35.8	35.8	35.8	88	32.6	2	4	248	0.00	29.904 
08:30	35.8	35.8	35.8	87	32.3	2	6	248	0.00	29.912 
08:35	35.9	35.9	35.9	87	32.4	1	4	248	0.00	29.912 
08:40	35.9	35.9	35.9	86	32.1	1	6	248	0.00	29.912 
08:45	35.9	35.9	35.9	86	32.1	1	7	270	0.00	29.922 
08:50	35.9	35.9	35.9	86	32.1	2	4	248	0.00	29.922 
08:55	35.9	35.9	35.9	85	31.8	1	4	248	0.00	29.922 
09:00	35.9	35.9	35.9	85	31.8	1	3	248	0.00	29.934 
09:05	35.8	35.8	35.8	84	31.4	2	6	248	0.00	29.934 
09:10	35.8	35.8	35.8	84	31.4	1	4	270	0.00	29.934 
09:15	35.8	35.8	35.8	84	31.4	1	3	248	0.00	29.937 
09:20	35.8	35.8	35.8	83	31.2	2	4	248	0.00	29.937 
09:25	35.8	35.8	35.8	82	30.9	1	4	248	0.00	29.937 
09:30	35.6	35.6	35.6	82	30.7	2	7	270	0.00	29.942 
09:35	35.6	35.6	35.6	81	30.4	2	7	248	0.00	29.942 
09:40	35.8	35.8	35.8	81	30.6	1	3	248	0.00	29.942 
09:45	35.8	35.8	35.8	81	30.6	2	5	248	0.00	29.955 
09:50	35.9	35.9	35.9	81	30.6	2	3	248	0.00	29.955 
09:55	35.9	35.9	35.9	80	30.3	2	6	270	0.00	29.955 
10:00	36.0	36.0	36.0	78	29.8	2	5	248	0.00	29.968 
10:05	36.2	36.2	36.2	78	30.0	2	6	248	0.00	29.968 
10:10	36.2	36.2	36.2	77	29.7	2	4	248	0.00	29.968 
10:15	36.2	36.2	36.2	78	30.0	2	5	270	0.00	29.985 
10:20	36.2	36.2	36.2	78	30.0	1	4	270	0.00	29.985 
10:25	36.0	36.0	36.0	78	29.8	2	5	270	0.00	29.985 
10:30	36.0	36.0	36.0	78	29.8	2	5	270	0.00	30.000 
10:35	35.9	35.9	35.9	77	29.4	3	6	248	0.00	30.000 
10:40	35.9	35.9	35.9	78	29.7	2	7	248	0.00	30.000 
10:45	35.9	35.9	35.9	78	29.7	1	3	248	0.00	30.011 
10:50	35.9	35.9	35.9	78	29.7	2	6	248	0.00	30.011 
10:55	35.9	35.9	35.9	77	29.4	3	7	248	0.00	30.011 
11:00	36.0	36.0	36.0	77	29.5	2	5	248	0.00	30.009 
11:05	36.2	36.2	36.2	77	29.7	1	4	270	0.00	30.009 
11:10	36.2	36.2	36.2	77	29.7	2	6	270	0.00	30.009 
11:15	36.3	36.3	36.3	76	29.5	2	6	270	0.00	30.009 
11:20	36.3	36.3	36.3	76	29.5	2	5	248	0.00	30.009 
11:25	36.5	36.5	36.5	76	29.7	1	5	248	0.00	30.009 
11:30	36.5	36.5	36.5	76	29.7	1	4	248	0.00	30.013 
11:35	36.5	36.5	36.5	77	30.0	2	6	248	0.00	30.013 
11:40	36.5	36.5	36.5	76	29.7	3	11	248	0.00	30.013 
11:45	36.5	36.5	36.5	77	30.0	2	7	248	0.00	30.014 
11:50	36.5	36.5	36.5	76	29.7	3	6	248	0.00	30.014 
11:55	36.6	36.6	36.6	76	29.8	2	7	248	0.00	30.014 
12:00	36.6	36.6	36.6	77	30.1	2	5	248	0.00	30.015 
12:05	36.6	36.6	36.6	77	30.1	3	11	248	0.00	30.015 
12:10	36.6	36.6	36.6	77	30.1	3	10	248	0.00	30.015 
12:15	36.6	33.4	36.6	76	29.8	4	9	248	0.00	30.019 
12:20	36.6	36.6	36.6	77	30.1	2	7	248	0.00	30.019 
12:25	36.6	36.6	36.6	76	29.8	3	6	248	0.00	30.019 
12:30	36.6	36.6	36.6	76	29.8	3	7	248	0.00	30.018 
12:35	36.6	36.6	36.6	77	30.1	2	6	248	0.00	30.018 
12:40	36.8	36.8	36.8	77	30.3	1	4	248	0.00	30.018 
12:45	36.8	36.8	36.8	77	30.3	2	6	248	0.00	30.016 
12:50	36.8	36.8	36.8	77	30.3	2	5	270	0.00	30.016 
12:55	36.8	36.8	36.8	77	30.3	2	9	248	0.00	30.016 
13:00	36.8	36.8	36.8	76	30.0	2	5	248	0.00	30.021 
13:05	36.8	33.6	36.8	75	29.6	4	7	248	0.01	30.021 
13:10	36.8	36.8	36.8	75	29.6	2	7	270	0.00	30.021 
13:15	36.9	36.9	36.9	75	29.7	2	9	248	0.00	30.027 
13:20	36.9	36.9	36.9	75	29.7	3	9	248	0.00	30.027 
13:25	36.9	36.9	36.9	75	29.7	2	9	248	0.00	30.027 
13:30	36.9	36.9	36.9	75	29.7	3	7	248	0.00	30.030 
13:35	37.0	37.0	37.0	75	29.8	1	6	248	0.00	30.030 
13:40	37.0	37.0	37.0	76	30.2	2	6	248	0.00	30.030 
13:45	37.0	37.0	37.0	76	30.2	1	6	248	0.00	30.033 
13:50	37.0	37.0	37.0	76	30.2	1	5	248	0.00	30.033 
13:55	37.2	37.2	37.2	76	30.3	2	7	248	0.00	30.033 
14:00	37.2	37.2	37.2	76	30.3	2	6	248	0.00	30.031 
14:05	37.2	37.2	37.2	77	30.7	2	6	248	0.00	30.031 
14:10	37.0	37.0	37.0	77	30.5	2	7	248	0.00	30.031 
14:15	37.0	37.0	37.0	77	30.5	1	3	248	0.00	30.034 
14:20	37.0	37.0	37.0	77	30.5	2	6	248	0.00	30.034 
14:25	37.0	37.0	37.0	77	30.5	2	6	248	0.00	30.034 
14:30	37.0	37.0	37.0	77	30.5	1	5	248	0.00	30.045 
14:35	37.0	37.0	37.0	76	30.2	2	5	248	0.00	30.045 
14:40	37.0	37.0	37.0	76	30.2	1	4	248	0.00	30.045 
14:45	37.0	37.0	37.0	76	30.2	2	7	248	0.00	30.043 
14:50	37.2	37.2	37.2	76	30.3	1	5	248	0.00	30.043 
14:55	37.2	37.2	37.2	76	30.3	1	4	248	0.00	30.043 
15:00	37.2	37.2	37.2	76	30.3	1	4	248	0.00	30.045 
15:05	37.3	37.3	37.3	76	30.4	1	5	248	0.00	30.045 
15:10	37.3	37.3	37.3	76	30.4	1	4	248	0.00	30.045 
15:15	37.3	37.3	37.3	76	30.4	0	2	248	0.00	30.047 
15:20	37.5	37.5	37.5	76	30.6	0	5	248	0.00	30.047 
15:25	37.5	37.5	37.5	76	30.6	1	5	248	0.00	30.047 
15:30	37.5	37.5	37.5	76	30.6	2	9	248	0.00	30.048 
15:35	37.5	37.5	37.5	76	30.6	1	6	248	0.00	30.048 
15:40	37.5	37.5	37.5	75	30.3	2	5	248	0.00	30.048 
15:45	37.5	37.5	37.5	76	30.6	0	5	248	0.00	30.061 
15:50	37.6	37.6	37.6	76	30.7	1	4	248	0.00	30.061 
15:55	37.6	37.6	37.6	75	30.4	1	3	248	0.00	30.061 
16:00	37.6	37.6	37.6	75	30.4	1	3	248	0.00	30.075 
16:05	37.8	37.8	37.8	75	30.6	1	4	248	0.00	30.075 
16:10	37.8	37.8	37.8	74	30.3	1	5	248	0.00	30.075 
16:15	37.8	37.8	37.8	74	30.3	1	4	248	0.00	30.083 
16:20	37.8	37.8	37.8	74	30.3	0	1	248	0.00	30.083 
16:25	37.8	37.8	37.8	74	30.3	1	4	248	0.00	30.083 
16:30	37.8	37.8	37.8	74	30.3	1	4	248	0.00	30.079 
16:35	37.8	37.8	37.8	74	30.3	0	2	248	0.00	30.079 
16:40	37.8	37.8	37.8	75	30.6	0	2	248	0.00	30.079 
16:45	37.8	37.8	37.8	75	30.6	0	2	248	0.00	30.093 
16:50	37.8	37.8	37.8	75	30.6	0	2	248	0.00	30.093 
16:55	37.8	37.8	37.8	75	30.6	1	3	248	0.00	30.093 
17:00	37.8	37.8	37.8	75	30.6	0	2	248	0.00	30.092 
17:05	37.8	37.8	37.8	76	30.9	0	3	248	0.00	30.092 
17:10	37.6	37.6	37.6	76	30.7	0	2	248	0.00	30.092 
17:15	37.6	37.6	37.6	76	30.7	0	3	248	0.00	30.087 
17:20	37.6	37.6	37.6	76	30.7	0	2	248	0.00	30.087 
17:25	37.5	37.5	37.5	77	31.0	0	2	248	0.00	30.087 
17:30	37.3	37.3	37.3	77	30.8	0	2	248	0.00	30.093 
17:35	37.3	37.3	37.3	77	30.8	0	3	248	0.00	30.093 
17:40	37.3	37.3	37.3	77	30.8	0	2	248	0.00	30.093 
17:45	37.3	37.3	37.3	77	30.8	0	3	248	0.00	30.103 
17:50	37.3	37.3	37.3	77	30.8	0	2	248	0.00	30.103 
17:55	37.3	37.3	37.3	76	30.4	0	3	248	0.00	30.103 
18:00	37.2	37.2	37.2	77	30.7	0	1	248	0.00	30.098 
18:05	37.2	37.2	37.2	77	30.7	0	2	248	0.00	30.098 
18:10	37.2	37.2	37.2	77	30.7	0	1	248	0.00	30.098 
18:15	37.0	37.0	37.0	78	30.8	0	1	248	0.00	30.101 
18:20	37.0	37.0	37.0	79	31.1	0	1	248	0.00	30.101 
18:25	37.0	37.0	37.0	79	31.1	0	2	248	0.00	30.101 
18:30	37.0	37.0	37.0	80	31.4	0	3	248	0.00	30.111 
18:35	36.9	36.9	36.9	80	31.3	0	1	248	0.00	30.111 
18:40	36.9	36.9	36.9	79	31.0	0	1	248	0.00	30.111 
18:45	36.8	36.8	36.8	79	30.9	0	2	248	0.00	30.121 
18:50	36.8	36.8	36.8	79	30.9	0	2	248	0.00	30.121 
18:55	36.8	36.8	36.8	79	30.9	0	3	248	0.00	30.121 
19:00	36.6	36.6	36.6	79	30.7	0	1	248	0.00	30.123 
19:05	36.5	36.5	36.5	78	30.3	0	2	248	0.00	30.123 
19:10	36.3	36.3	36.3	79	30.4	0	1	248	0.00	30.123 
19:15	36.2	36.2	36.2	79	30.3	0	0	---	0.00	30.127 
19:20	35.9	35.9	35.9	79	30.0	0	0	---	0.00	30.127 
19:25	35.8	35.8	35.8	80	30.2	0	1	248	0.00	30.127 
19:30	35.6	35.6	35.6	80	30.1	0	1	248	0.00	30.125 
19:35	35.3	35.3	35.3	81	30.1	0	1	248	0.00	30.125 
19:40	35.2	35.2	35.2	81	30.0	0	2	248	0.00	30.125 
19:45	35.0	35.0	35.0	81	29.8	0	1	248	0.00	30.123 
19:50	34.9	34.9	34.9	81	29.7	0	0	---	0.00	30.123 
19:55	34.7	34.7	34.7	81	29.5	0	1	248	0.00	30.123 
20:00	34.6	34.6	34.6	82	29.7	0	0	---	0.00	30.127 
20:05	34.3	34.3	34.3	82	29.4	0	1	248	0.00	30.127 
20:10	34.1	34.1	34.1	83	29.5	0	0	---	0.00	30.127 
20:15	34.1	34.1	34.1	83	29.5	0	1	248	0.00	30.129 
20:20	34.0	34.0	34.0	83	29.4	0	0	---	0.00	30.129 
20:25	33.8	33.8	33.8	83	29.2	0	0	---	0.00	30.129 
20:30	33.7	33.7	33.7	84	29.4	0	1	248	0.00	30.121 
20:35	33.7	33.7	33.7	84	29.4	0	1	248	0.00	30.121 
20:40	33.5	33.5	33.5	84	29.2	0	0	---	0.00	30.121 
20:45	33.5	33.5	33.5	84	29.2	0	0	---	0.00	30.125 
20:50	33.4	33.4	33.4	84	29.1	0	0	---	0.00	30.125 
20:55	33.4	33.4	33.4	85	29.4	0	1	248	0.00	30.125 
21:00	33.4	33.4	33.4	85	29.4	0	1	248	0.00	30.118 
21:05	33.5	33.5	33.5	86	29.8	0	1	248	0.00	30.118 
21:10	33.7	33.7	33.7	86	30.0	0	1	248	0.00	30.118 
21:15	33.8	33.8	33.8	86	30.1	0	1	248	0.00	30.112 
21:20	34.0	34.0	34.0	86	30.3	0	1	248	0.00	30.112 
21:25	34.1	34.1	34.1	86	30.4	0	1	248	0.00	30.112 
21:30	34.1	34.1	34.1	86	30.4	0	0	---	0.00	30.112 
21:35	34.1	34.1	34.1	86	30.4	0	2	248	0.00	30.112 
21:40	34.3	34.3	34.3	86	30.6	0	1	248	0.00	30.112 
21:45	34.3	34.3	34.3	86	30.6	0	0	---	0.00	30.112 
21:50	34.1	34.1	34.1	86	30.4	0	1	248	0.00	30.112 
21:55	34.1	34.1	34.1	86	30.4	0	1	248	0.00	30.112 
22:00	34.1	34.1	34.1	86	30.4	0	1	225	0.00	30.109 
22:05	34.0	34.0	34.0	86	30.3	0	1	225	0.00	30.109 
22:10	34.0	34.0	34.0	86	30.3	0	2	225	0.00	30.109 
22:15	33.8	33.8	33.8	86	30.1	0	2	225	0.00	30.115 
22:20	33.8	33.8	33.8	87	30.3	0	1	225	0.00	30.115 
22:25	34.0	34.0	34.0	87	30.5	0	3	225	0.00	30.115 
22:30	34.0	34.0	34.0	86	30.3	0	1	225	0.00	30.123 
22:35	34.0	34.0	34.0	86	30.3	0	2	225	0.00	30.123 
22:40	34.0	34.0	34.0	87	30.5	0	1	225	0.00	30.123 
22:45	34.1	34.1	34.1	87	30.6	0	0	---	0.00	30.123 
22:50	34.1	34.1	34.1	87	30.6	0	1	225	0.00	30.123 
22:55	34.3	34.3	34.3	87	30.8	0	1	225	0.00	30.123 
23:00	34.3	34.3	34.3	87	30.8	0	2	225	0.00	30.119 
23:05	34.4	34.4	34.4	87	30.9	0	3	225	0.00	30.119 
23:10	34.6	34.6	34.6	86	30.9	1	4	135	0.00	30.119 
23:15	34.6	34.6	34.6	86	30.9	0	1	112	0.00	30.124 
23:20	34.4	34.4	34.4	86	30.7	0	1	112	0.00	30.124 
23:25	34.4	34.4	34.4	86	30.7	0	2	112	0.00	30.124 
23:30	34.4	34.4	34.4	86	30.7	0	2	112	0.00	30.112 
23:35	34.4	34.4	34.4	86	30.7	0	2	112	0.00	30.112 
23:40	34.4	34.4	34.4	86	30.7	0	2	112	0.00	30.112 
23:45	34.3	34.3	34.3	86	30.6	0	1	112	0.00	30.120 
23:50	34.1	34.1	34.1	86	30.4	0	2	112	0.00	30.120 
23:55	34.1	34.1	34.1	87	30.6	0	2	112	0.00	30.120 

CoCoRaHS
IN-AL-39
A2 Web Hosting
Creative Commons License
GoDaddy
search engine by freefind advanced

loaded 2018-11-20 03:07:57 • last modified 2010-11-18 10:43:29
Privacy PolicyDisclaimer
• wx.awcolley.com is powered by PmWiki v.2002016 •
• all content (unless otherwise noted) © 2018 A W Colley